sensor_id;sensor_type;location;lat;lon;timestamp;temperature;humidity
59469;DHT22;45277;52.768;18.262;2023-04-21T00:00:29;8.60;99.90
59469;DHT22;45277;52.768;18.262;2023-04-21T00:02:21;8.50;99.90
59469;DHT22;45277;52.768;18.262;2023-04-21T00:03:52;8.50;99.90
59469;DHT22;45277;52.768;18.262;2023-04-21T00:05:25;8.60;99.90
59469;DHT22;45277;52.768;18.262;2023-04-21T00:06:57;8.60;99.90
59469;DHT22;45277;52.768;18.262;2023-04-21T00:08:31;8.60;99.90
59469;DHT22;45277;52.768;18.262;2023-04-21T00:10:08;8.60;99.90
59469;DHT22;45277;52.768;18.262;2023-04-21T00:11:39;8.60;99.90
59469;DHT22;45277;52.768;18.262;2023-04-21T00:13:11;8.60;99.90
59469;DHT22;45277;52.768;18.262;2023-04-21T00:14:42;8.60;99.90
59469;DHT22;45277;52.768;18.262;2023-04-21T00:16:14;8.60;99.90
59469;DHT22;45277;52.768;18.262;2023-04-21T00:17:45;8.60;99.90
59469;DHT22;45277;52.768;18.262;2023-04-21T00:19:17;8.60;99.90
59469;DHT22;45277;52.768;18.262;2023-04-21T00:20:50;8.60;99.90
59469;DHT22;45277;52.768;18.262;2023-04-21T00:22:21;8.60;99.90
59469;DHT22;45277;52.768;18.262;2023-04-21T00:23:53;8.60;99.90
59469;DHT22;45277;52.768;18.262;2023-04-21T00:25:24;8.60;99.90
59469;DHT22;45277;52.768;18.262;2023-04-21T00:26:56;8.60;99.90
59469;DHT22;45277;52.768;18.262;2023-04-21T00:28:27;8.60;99.90
59469;DHT22;45277;52.768;18.262;2023-04-21T00:29:59;8.50;99.90
59469;DHT22;45277;52.768;18.262;2023-04-21T00:31:30;8.40;99.90
59469;DHT22;45277;52.768;18.262;2023-04-21T00:33:02;8.40;99.90
59469;DHT22;45277;52.768;18.262;2023-04-21T00:34:34;8.40;99.90
59469;DHT22;45277;52.768;18.262;2023-04-21T00:36:05;8.30;99.90
59469;DHT22;45277;52.768;18.262;2023-04-21T00:37:36;8.30;99.90
59469;DHT22;45277;52.768;18.262;2023-04-21T00:39:08;8.30;99.90
59469;DHT22;45277;52.768;18.262;2023-04-21T00:40:39;8.30;99.90
59469;DHT22;45277;52.768;18.262;2023-04-21T00:42:13;8.30;99.90
59469;DHT22;45277;52.768;18.262;2023-04-21T00:44:05;8.30;99.90
59469;DHT22;45277;52.768;18.262;2023-04-21T00:45:37;8.40;99.90
59469;DHT22;45277;52.768;18.262;2023-04-21T00:47:08;8.30;99.90
59469;DHT22;45277;52.768;18.262;2023-04-21T00:48:40;8.30;99.90
59469;DHT22;45277;52.768;18.262;2023-04-21T00:50:11;8.20;99.90
59469;DHT22;45277;52.768;18.262;2023-04-21T00:51:43;8.10;99.90
59469;DHT22;45277;52.768;18.262;2023-04-21T00:53:15;8.10;99.90
59469;DHT22;45277;52.768;18.262;2023-04-21T00:54:46;8.10;99.90
59469;DHT22;45277;52.768;18.262;2023-04-21T00:56:18;8.10;99.90
59469;DHT22;45277;52.768;18.262;2023-04-21T00:57:51;8.10;99.90
59469;DHT22;45277;52.768;18.262;2023-04-21T00:59:23;8.10;99.90
59469;DHT22;45277;52.768;18.262;2023-04-21T01:00:54;8.10;99.90
59469;DHT22;45277;52.768;18.262;2023-04-21T01:02:26;8.20;99.90
59469;DHT22;45277;52.768;18.262;2023-04-21T01:03:59;8.20;99.90
59469;DHT22;45277;52.768;18.262;2023-04-21T01:05:31;8.20;99.90
59469;DHT22;45277;52.768;18.262;2023-04-21T01:07:03;8.20;99.90
59469;DHT22;45277;52.768;18.262;2023-04-21T01:08:35;8.20;99.90
59469;DHT22;45277;52.768;18.262;2023-04-21T01:10:08;8.10;99.90
59469;DHT22;45277;52.768;18.262;2023-04-21T01:11:40;8.10;99.90
59469;DHT22;45277;52.768;18.262;2023-04-21T01:13:11;8.10;99.90
59469;DHT22;45277;52.768;18.262;2023-04-21T01:14:42;8.00;99.90
59469;DHT22;45277;52.768;18.262;2023-04-21T01:16:17;7.90;99.90
59469;DHT22;45277;52.768;18.262;2023-04-21T01:17:49;7.90;99.90
59469;DHT22;45277;52.768;18.262;2023-04-21T01:19:20;7.90;99.90
59469;DHT22;45277;52.768;18.262;2023-04-21T01:20:51;8.00;99.90
59469;DHT22;45277;52.768;18.262;2023-04-21T01:22:23;8.00;99.90
59469;DHT22;45277;52.768;18.262;2023-04-21T01:23:54;8.10;99.90
59469;DHT22;45277;52.768;18.262;2023-04-21T01:25:26;8.10;99.90
59469;DHT22;45277;52.768;18.262;2023-04-21T01:26:58;8.00;99.90
59469;DHT22;45277;52.768;18.262;2023-04-21T01:28:29;8.00;99.90
59469;DHT22;45277;52.768;18.262;2023-04-21T01:30:01;7.90;99.90
59469;DHT22;45277;52.768;18.262;2023-04-21T01:31:33;7.90;99.90
59469;DHT22;45277;52.768;18.262;2023-04-21T01:33:04;7.80;99.90
59469;DHT22;45277;52.768;18.262;2023-04-21T01:34:37;7.80;99.90
59469;DHT22;45277;52.768;18.262;2023-04-21T01:36:09;7.70;99.90
59469;DHT22;45277;52.768;18.262;2023-04-21T01:37:40;7.80;99.90
59469;DHT22;45277;52.768;18.262;2023-04-21T01:39:12;7.70;99.90
59469;DHT22;45277;52.768;18.262;2023-04-21T01:40:46;7.70;99.90
59469;DHT22;45277;52.768;18.262;2023-04-21T01:42:18;7.60;99.90
59469;DHT22;45277;52.768;18.262;2023-04-21T01:43:51;7.70;99.90
59469;DHT22;45277;52.768;18.262;2023-04-21T01:45:22;7.70;99.90
59469;DHT22;45277;52.768;18.262;2023-04-21T01:46:53;7.60;99.90
59469;DHT22;45277;52.768;18.262;2023-04-21T01:48:25;7.50;99.90
59469;DHT22;45277;52.768;18.262;2023-04-21T01:49:56;7.50;99.90
59469;DHT22;45277;52.768;18.262;2023-04-21T01:51:27;7.50;99.90
59469;DHT22;45277;52.768;18.262;2023-04-21T01:52:59;7.40;99.90
59469;DHT22;45277;52.768;18.262;2023-04-21T01:54:30;7.40;99.90
59469;DHT22;45277;52.768;18.262;2023-04-21T02:01:24;7.40;99.90
59469;DHT22;45277;52.768;18.262;2023-04-21T02:05:35;7.40;99.90
59469;DHT22;45277;52.768;18.262;2023-04-21T02:07:22;7.40;99.90
59469;DHT22;45277;52.768;18.262;2023-04-21T02:08:53;7.40;99.90
59469;DHT22;45277;52.768;18.262;2023-04-21T02:10:25;7.40;99.90
59469;DHT22;45277;52.768;18.262;2023-04-21T02:11:57;7.40;99.90
59469;DHT22;45277;52.768;18.262;2023-04-21T02:13:28;7.40;99.90
59469;DHT22;45277;52.768;18.262;2023-04-21T02:15:00;7.30;99.90
59469;DHT22;45277;52.768;18.262;2023-04-21T02:16:32;7.30;99.90
59469;DHT22;45277;52.768;18.262;2023-04-21T02:18:03;7.30;99.90
59469;DHT22;45277;52.768;18.262;2023-04-21T02:19:35;7.30;99.90
59469;DHT22;45277;52.768;18.262;2023-04-21T02:21:07;7.40;99.90
59469;DHT22;45277;52.768;18.262;2023-04-21T02:22:39;7.40;99.90
59469;DHT22;45277;52.768;18.262;2023-04-21T02:24:11;7.40;99.90
59469;DHT22;45277;52.768;18.262;2023-04-21T02:25:42;7.40;99.90
59469;DHT22;45277;52.768;18.262;2023-04-21T02:27:13;7.40;99.90
59469;DHT22;45277;52.768;18.262;2023-04-21T02:28:45;7.30;99.90
59469;DHT22;45277;52.768;18.262;2023-04-21T02:30:16;7.30;99.90
59469;DHT22;45277;52.768;18.262;2023-04-21T02:31:48;7.30;99.90
59469;DHT22;45277;52.768;18.262;2023-04-21T02:33:19;7.40;99.90
59469;DHT22;45277;52.768;18.262;2023-04-21T02:34:51;7.40;99.90
59469;DHT22;45277;52.768;18.262;2023-04-21T02:36:22;7.40;99.90
59469;DHT22;45277;52.768;18.262;2023-04-21T02:37:54;7.40;99.90
59469;DHT22;45277;52.768;18.262;2023-04-21T02:39:25;7.40;99.90
59469;DHT22;45277;52.768;18.262;2023-04-21T02:40:57;7.40;99.90
59469;DHT22;45277;52.768;18.262;2023-04-21T02:42:28;7.30;99.90
59469;DHT22;45277;52.768;18.262;2023-04-21T02:44:00;7.30;99.90
59469;DHT22;45277;52.768;18.262;2023-04-21T02:45:31;7.20;99.90
59469;DHT22;45277;52.768;18.262;2023-04-21T02:47:03;7.20;99.90
59469;DHT22;45277;52.768;18.262;2023-04-21T02:48:35;7.10;99.90
59469;DHT22;45277;52.768;18.262;2023-04-21T02:50:07;7.10;99.90
59469;DHT22;45277;52.768;18.262;2023-04-21T02:51:39;7.10;99.90
59469;DHT22;45277;52.768;18.262;2023-04-21T02:53:10;7.00;99.90
59469;DHT22;45277;52.768;18.262;2023-04-21T02:54:41;7.10;99.90
59469;DHT22;45277;52.768;18.262;2023-04-21T02:56:13;7.20;99.90
59469;DHT22;45277;52.768;18.262;2023-04-21T02:57:44;7.20;99.90
59469;DHT22;45277;52.768;18.262;2023-04-21T02:59:16;7.20;99.90
59469;DHT22;45277;52.768;18.262;2023-04-21T03:00:47;7.20;99.90
59469;DHT22;45277;52.768;18.262;2023-04-21T03:02:19;7.10;99.90
59469;DHT22;45277;52.768;18.262;2023-04-21T03:03:50;7.10;99.90
59469;DHT22;45277;52.768;18.262;2023-04-21T03:05:22;6.90;99.90
59469;DHT22;45277;52.768;18.262;2023-04-21T03:06:53;6.90;99.90
59469;DHT22;45277;52.768;18.262;2023-04-21T03:08:25;6.80;99.90
59469;DHT22;45277;52.768;18.262;2023-04-21T03:09:57;6.80;99.90
59469;DHT22;45277;52.768;18.262;2023-04-21T03:11:28;6.70;99.90
59469;DHT22;45277;52.768;18.262;2023-04-21T03:12:59;6.70;99.90
59469;DHT22;45277;52.768;18.262;2023-04-21T03:14:31;6.70;99.90
59469;DHT22;45277;52.768;18.262;2023-04-21T03:16:03;6.60;99.90
59469;DHT22;45277;52.768;18.262;2023-04-21T03:17:34;6.70;99.90
59469;DHT22;45277;52.768;18.262;2023-04-21T03:19:06;6.80;99.90
59469;DHT22;45277;52.768;18.262;2023-04-21T03:20:37;6.70;99.90
59469;DHT22;45277;52.768;18.262;2023-04-21T03:22:09;6.70;99.90
59469;DHT22;45277;52.768;18.262;2023-04-21T03:23:40;6.70;99.90
59469;DHT22;45277;52.768;18.262;2023-04-21T03:25:12;6.60;99.90
59469;DHT22;45277;52.768;18.262;2023-04-21T03:26:43;6.60;99.90
59469;DHT22;45277;52.768;18.262;2023-04-21T03:28:15;6.60;99.90
59469;DHT22;45277;52.768;18.262;2023-04-21T03:29:46;6.60;99.90
59469;DHT22;45277;52.768;18.262;2023-04-21T03:31:18;6.50;99.90
59469;DHT22;45277;52.768;18.262;2023-04-21T03:32:49;6.50;99.90
59469;DHT22;45277;52.768;18.262;2023-04-21T03:34:21;6.50;99.90
59469;DHT22;45277;52.768;18.262;2023-04-21T03:35:52;6.50;99.90
59469;DHT22;45277;52.768;18.262;2023-04-21T03:37:24;6.50;99.90
59469;DHT22;45277;52.768;18.262;2023-04-21T03:38:55;6.50;99.90
59469;DHT22;45277;52.768;18.262;2023-04-21T03:40:28;6.40;99.90
59469;DHT22;45277;52.768;18.262;2023-04-21T03:42:00;6.40;99.90
59469;DHT22;45277;52.768;18.262;2023-04-21T03:43:31;6.40;99.90
59469;DHT22;45277;52.768;18.262;2023-04-21T03:45:04;6.40;99.90
59469;DHT22;45277;52.768;18.262;2023-04-21T03:46:37;6.40;99.90
59469;DHT22;45277;52.768;18.262;2023-04-21T03:48:08;6.40;99.90
59469;DHT22;45277;52.768;18.262;2023-04-21T03:49:39;6.40;99.90
59469;DHT22;45277;52.768;18.262;2023-04-21T03:51:11;6.30;99.90
59469;DHT22;45277;52.768;18.262;2023-04-21T03:52:42;6.30;99.90
59469;DHT22;45277;52.768;18.262;2023-04-21T03:54:14;6.30;99.90
59469;DHT22;45277;52.768;18.262;2023-04-21T03:55:46;6.30;99.90
59469;DHT22;45277;52.768;18.262;2023-04-21T03:57:20;6.30;99.90
59469;DHT22;45277;52.768;18.262;2023-04-21T03:58:51;6.30;99.90
59469;DHT22;45277;52.768;18.262;2023-04-21T04:00:23;6.30;99.90
59469;DHT22;45277;52.768;18.262;2023-04-21T04:01:55;6.30;99.90
59469;DHT22;45277;52.768;18.262;2023-04-21T04:03:26;6.30;99.90
59469;DHT22;45277;52.768;18.262;2023-04-21T04:04:58;6.30;99.90
59469;DHT22;45277;52.768;18.262;2023-04-21T04:06:29;6.30;99.90
59469;DHT22;45277;52.768;18.262;2023-04-21T04:08:02;6.30;99.90
59469;DHT22;45277;52.768;18.262;2023-04-21T04:09:33;6.40;99.90
59469;DHT22;45277;52.768;18.262;2023-04-21T04:11:05;6.40;99.90
59469;DHT22;45277;52.768;18.262;2023-04-21T04:12:36;6.50;99.90
59469;DHT22;45277;52.768;18.262;2023-04-21T04:14:08;6.50;99.90
59469;DHT22;45277;52.768;18.262;2023-04-21T04:15:39;6.60;99.90
59469;DHT22;45277;52.768;18.262;2023-04-21T04:17:11;6.60;99.90
59469;DHT22;45277;52.768;18.262;2023-04-21T04:18:42;6.70;99.90
59469;DHT22;45277;52.768;18.262;2023-04-21T04:20:15;6.70;99.90
59469;DHT22;45277;52.768;18.262;2023-04-21T04:21:47;6.70;99.90
59469;DHT22;45277;52.768;18.262;2023-04-21T04:23:19;6.70;99.90
59469;DHT22;45277;52.768;18.262;2023-04-21T04:24:50;6.80;99.90
59469;DHT22;45277;52.768;18.262;2023-04-21T04:26:23;6.80;99.90
59469;DHT22;45277;52.768;18.262;2023-04-21T04:27:55;6.90;99.90
59469;DHT22;45277;52.768;18.262;2023-04-21T04:29:27;6.90;99.90
59469;DHT22;45277;52.768;18.262;2023-04-21T04:30:58;7.00;99.90
59469;DHT22;45277;52.768;18.262;2023-04-21T04:32:32;7.00;99.90
59469;DHT22;45277;52.768;18.262;2023-04-21T04:34:04;7.00;99.90
59469;DHT22;45277;52.768;18.262;2023-04-21T04:35:35;7.10;99.90
59469;DHT22;45277;52.768;18.262;2023-04-21T04:37:07;7.10;99.90
59469;DHT22;45277;52.768;18.262;2023-04-21T04:38:41;7.20;99.90
59469;DHT22;45277;52.768;18.262;2023-04-21T04:40:12;7.20;99.90
59469;DHT22;45277;52.768;18.262;2023-04-21T04:41:44;7.30;99.90
59469;DHT22;45277;52.768;18.262;2023-04-21T04:43:17;7.30;99.90
59469;DHT22;45277;52.768;18.262;2023-04-21T04:44:48;7.40;99.90
59469;DHT22;45277;52.768;18.262;2023-04-21T04:46:23;7.40;99.90
59469;DHT22;45277;52.768;18.262;2023-04-21T04:47:54;7.50;99.90
59469;DHT22;45277;52.768;18.262;2023-04-21T04:49:26;7.50;99.90
59469;DHT22;45277;52.768;18.262;2023-04-21T04:50:57;7.50;99.90
59469;DHT22;45277;52.768;18.262;2023-04-21T04:52:29;7.60;99.90
59469;DHT22;45277;52.768;18.262;2023-04-21T04:54:00;7.60;99.90
59469;DHT22;45277;52.768;18.262;2023-04-21T04:55:32;7.60;99.90
59469;DHT22;45277;52.768;18.262;2023-04-21T04:57:03;7.70;99.90
59469;DHT22;45277;52.768;18.262;2023-04-21T04:58:35;7.70;99.90
59469;DHT22;45277;52.768;18.262;2023-04-21T05:00:07;7.80;99.90
59469;DHT22;45277;52.768;18.262;2023-04-21T05:01:41;7.80;99.90
59469;DHT22;45277;52.768;18.262;2023-04-21T05:03:12;7.90;99.90
59469;DHT22;45277;52.768;18.262;2023-04-21T05:04:44;7.90;99.90
59469;DHT22;45277;52.768;18.262;2023-04-21T05:06:15;7.90;99.90
59469;DHT22;45277;52.768;18.262;2023-04-21T05:07:47;8.00;99.90
59469;DHT22;45277;52.768;18.262;2023-04-21T05:09:19;8.00;99.90
59469;DHT22;45277;52.768;18.262;2023-04-21T05:10:50;8.00;99.90
59469;DHT22;45277;52.768;18.262;2023-04-21T05:12:22;8.10;99.90
59469;DHT22;45277;52.768;18.262;2023-04-21T05:13:53;8.10;99.90
59469;DHT22;45277;52.768;18.262;2023-04-21T05:15:25;8.10;99.90
59469;DHT22;45277;52.768;18.262;2023-04-21T05:16:57;8.20;99.90
59469;DHT22;45277;52.768;18.262;2023-04-21T05:18:29;8.20;99.90
59469;DHT22;45277;52.768;18.262;2023-04-21T05:20:00;8.20;99.90
59469;DHT22;45277;52.768;18.262;2023-04-21T05:21:32;8.20;99.90
59469;DHT22;45277;52.768;18.262;2023-04-21T05:23:03;8.30;99.90
59469;DHT22;45277;52.768;18.262;2023-04-21T05:24:35;8.30;99.90
59469;DHT22;45277;52.768;18.262;2023-04-21T05:26:07;8.40;99.90
59469;DHT22;45277;52.768;18.262;2023-04-21T05:27:38;8.40;99.90
59469;DHT22;45277;52.768;18.262;2023-04-21T05:29:10;8.40;99.90
59469;DHT22;45277;52.768;18.262;2023-04-21T05:30:41;8.50;99.90
59469;DHT22;45277;52.768;18.262;2023-04-21T05:32:13;8.50;99.90
59469;DHT22;45277;52.768;18.262;2023-04-21T05:33:45;8.50;99.90
59469;DHT22;45277;52.768;18.262;2023-04-21T05:35:16;8.60;99.90
59469;DHT22;45277;52.768;18.262;2023-04-21T05:36:48;8.70;99.90
59469;DHT22;45277;52.768;18.262;2023-04-21T05:38:19;8.70;99.90
59469;DHT22;45277;52.768;18.262;2023-04-21T05:39:51;8.80;99.90
59469;DHT22;45277;52.768;18.262;2023-04-21T05:41:23;8.80;99.90
59469;DHT22;45277;52.768;18.262;2023-04-21T05:42:54;8.80;99.90
59469;DHT22;45277;52.768;18.262;2023-04-21T05:44:25;8.90;99.90
59469;DHT22;45277;52.768;18.262;2023-04-21T05:45:57;8.90;99.90
59469;DHT22;45277;52.768;18.262;2023-04-21T05:47:29;9.00;99.90
59469;DHT22;45277;52.768;18.262;2023-04-21T05:49:00;9.00;99.90
59469;DHT22;45277;52.768;18.262;2023-04-21T05:50:35;9.10;99.90
59469;DHT22;45277;52.768;18.262;2023-04-21T05:52:08;9.10;99.90
59469;DHT22;45277;52.768;18.262;2023-04-21T05:53:42;9.20;99.90
59469;DHT22;45277;52.768;18.262;2023-04-21T05:55:14;9.30;99.90
59469;DHT22;45277;52.768;18.262;2023-04-21T05:56:45;9.40;99.90
59469;DHT22;45277;52.768;18.262;2023-04-21T05:58:18;9.40;99.90
59469;DHT22;45277;52.768;18.262;2023-04-21T05:59:50;9.50;99.90
59469;DHT22;45277;52.768;18.262;2023-04-21T06:01:21;9.60;99.90
59469;DHT22;45277;52.768;18.262;2023-04-21T06:02:52;9.70;99.90
59469;DHT22;45277;52.768;18.262;2023-04-21T06:04:24;9.80;99.90
59469;DHT22;45277;52.768;18.262;2023-04-21T06:05:56;9.80;99.90
59469;DHT22;45277;52.768;18.262;2023-04-21T06:07:27;9.90;99.90
59469;DHT22;45277;52.768;18.262;2023-04-21T06:08:59;9.90;99.90
59469;DHT22;45277;52.768;18.262;2023-04-21T06:10:30;10.00;99.90
59469;DHT22;45277;52.768;18.262;2023-04-21T06:12:02;10.00;99.90
59469;DHT22;45277;52.768;18.262;2023-04-21T06:13:34;10.10;99.90
59469;DHT22;45277;52.768;18.262;2023-04-21T06:15:06;10.20;99.90
59469;DHT22;45277;52.768;18.262;2023-04-21T06:16:37;10.30;99.90
59469;DHT22;45277;52.768;18.262;2023-04-21T06:18:09;10.30;99.90
59469;DHT22;45277;52.768;18.262;2023-04-21T06:19:41;10.40;99.90
59469;DHT22;45277;52.768;18.262;2023-04-21T06:21:12;10.50;99.90
59469;DHT22;45277;52.768;18.262;2023-04-21T06:22:44;10.50;99.90
59469;DHT22;45277;52.768;18.262;2023-04-21T06:24:15;10.50;99.90
59469;DHT22;45277;52.768;18.262;2023-04-21T06:27:32;10.70;99.90
59469;DHT22;45277;52.768;18.262;2023-04-21T06:29:03;10.70;99.90
59469;DHT22;45277;52.768;18.262;2023-04-21T06:30:34;10.80;99.90
59469;DHT22;45277;52.768;18.262;2023-04-21T06:32:06;10.80;99.90
59469;DHT22;45277;52.768;18.262;2023-04-21T06:33:37;10.90;99.90
59469;DHT22;45277;52.768;18.262;2023-04-21T06:35:09;10.90;99.90
59469;DHT22;45277;52.768;18.262;2023-04-21T06:36:41;11.00;99.90
59469;DHT22;45277;52.768;18.262;2023-04-21T06:38:12;11.00;99.90
59469;DHT22;45277;52.768;18.262;2023-04-21T06:39:43;11.10;99.90
59469;DHT22;45277;52.768;18.262;2023-04-21T06:41:17;11.20;99.90
59469;DHT22;45277;52.768;18.262;2023-04-21T06:42:48;11.30;99.90
59469;DHT22;45277;52.768;18.262;2023-04-21T06:44:19;11.30;99.90
59469;DHT22;45277;52.768;18.262;2023-04-21T06:45:51;11.40;99.90
59469;DHT22;45277;52.768;18.262;2023-04-21T06:47:22;11.50;99.90
59469;DHT22;45277;52.768;18.262;2023-04-21T06:48:54;11.50;99.90
59469;DHT22;45277;52.768;18.262;2023-04-21T06:50:25;11.60;99.90
59469;DHT22;45277;52.768;18.262;2023-04-21T06:51:57;11.70;99.90
59469;DHT22;45277;52.768;18.262;2023-04-21T06:53:28;11.80;99.90
59469;DHT22;45277;52.768;18.262;2023-04-21T06:55:00;11.80;99.90
59469;DHT22;45277;52.768;18.262;2023-04-21T06:56:32;11.90;99.90
59469;DHT22;45277;52.768;18.262;2023-04-21T06:58:04;11.90;99.00
59469;DHT22;45277;52.768;18.262;2023-04-21T06:59:36;11.90;99.90
59469;DHT22;45277;52.768;18.262;2023-04-21T07:01:07;12.00;99.90
59469;DHT22;45277;52.768;18.262;2023-04-21T07:02:38;12.00;97.00
59469;DHT22;45277;52.768;18.262;2023-04-21T07:04:11;12.10;99.10
59469;DHT22;45277;52.768;18.262;2023-04-21T07:05:43;12.10;99.90
59469;DHT22;45277;52.768;18.262;2023-04-21T07:07:14;12.20;99.90
59469;DHT22;45277;52.768;18.262;2023-04-21T07:08:46;12.40;99.90
59469;DHT22;45277;52.768;18.262;2023-04-21T07:10:18;12.50;98.40
59469;DHT22;45277;52.768;18.262;2023-04-21T07:11:49;12.60;91.20
59469;DHT22;45277;52.768;18.262;2023-04-21T07:13:21;12.60;88.10
59469;DHT22;45277;52.768;18.262;2023-04-21T07:14:53;12.60;70.80
59469;DHT22;45277;52.768;18.262;2023-04-21T07:16:24;12.70;76.40
59469;DHT22;45277;52.768;18.262;2023-04-21T07:17:56;12.80;87.70
59469;DHT22;45277;52.768;18.262;2023-04-21T07:19:28;12.90;82.20
59469;DHT22;45277;52.768;18.262;2023-04-21T07:21:00;13.00;81.90
59469;DHT22;45277;52.768;18.262;2023-04-21T07:22:32;13.00;65.10
59469;DHT22;45277;52.768;18.262;2023-04-21T07:24:04;13.10;61.20
59469;DHT22;45277;52.768;18.262;2023-04-21T07:25:36;13.00;66.20
59469;DHT22;45277;52.768;18.262;2023-04-21T07:27:08;13.10;63.80
59469;DHT22;45277;52.768;18.262;2023-04-21T07:28:39;13.10;70.80
59469;DHT22;45277;52.768;18.262;2023-04-21T07:30:11;13.20;63.20
59469;DHT22;45277;52.768;18.262;2023-04-21T07:31:43;13.20;65.00
59469;DHT22;45277;52.768;18.262;2023-04-21T07:33:16;13.30;78.70
59469;DHT22;45277;52.768;18.262;2023-04-21T07:34:48;13.30;63.40
59469;DHT22;45277;52.768;18.262;2023-04-21T07:36:20;13.40;64.80
59469;DHT22;45277;52.768;18.262;2023-04-21T07:37:51;13.50;70.80
59469;DHT22;45277;52.768;18.262;2023-04-21T07:39:22;13.60;50.10
59469;DHT22;45277;52.768;18.262;2023-04-21T07:40:54;13.60;55.60
59469;DHT22;45277;52.768;18.262;2023-04-21T07:42:25;13.70;45.40
59469;DHT22;45277;52.768;18.262;2023-04-21T07:43:57;13.70;51.00
59469;DHT22;45277;52.768;18.262;2023-04-21T07:45:28;13.80;38.10
59469;DHT22;45277;52.768;18.262;2023-04-21T07:47:00;13.80;43.60
59469;DHT22;45277;52.768;18.262;2023-04-21T07:48:31;13.90;38.40
59469;DHT22;45277;52.768;18.262;2023-04-21T07:50:03;13.90;34.10
59469;DHT22;45277;52.768;18.262;2023-04-21T07:51:35;14.00;33.80
59469;DHT22;45277;52.768;18.262;2023-04-21T07:53:06;14.00;30.00
59469;DHT22;45277;52.768;18.262;2023-04-21T07:54:38;14.10;30.00
59469;DHT22;45277;52.768;18.262;2023-04-21T07:56:09;14.30;47.60
59469;DHT22;45277;52.768;18.262;2023-04-21T07:57:42;14.40;53.00
59469;DHT22;45277;52.768;18.262;2023-04-21T07:59:14;14.60;32.90
59469;DHT22;45277;52.768;18.262;2023-04-21T08:00:46;14.60;17.60
59469;DHT22;45277;52.768;18.262;2023-04-21T08:02:17;14.80;27.70
59469;DHT22;45277;52.768;18.262;2023-04-21T08:03:49;14.90;23.00
59469;DHT22;45277;52.768;18.262;2023-04-21T08:05:21;15.00;11.80
59469;DHT22;45277;52.768;18.262;2023-04-21T08:06:52;15.00;8.30
59469;DHT22;45277;52.768;18.262;2023-04-21T08:08:24;15.10;9.10
59469;DHT22;45277;52.768;18.262;2023-04-21T08:09:55;15.20;9.10
59469;DHT22;45277;52.768;18.262;2023-04-21T08:11:27;15.30;4.80
59469;DHT22;45277;52.768;18.262;2023-04-21T08:12:59;15.40;1.10
59469;DHT22;45277;52.768;18.262;2023-04-21T08:14:30;15.40;1.00
59469;DHT22;45277;52.768;18.262;2023-04-21T08:16:02;15.40;1.00
59469;DHT22;45277;52.768;18.262;2023-04-21T08:17:34;15.50;1.00
59469;DHT22;45277;52.768;18.262;2023-04-21T08:19:06;15.70;2.70
59469;DHT22;45277;52.768;18.262;2023-04-21T08:20:38;15.80;3.20
59469;DHT22;45277;52.768;18.262;2023-04-21T08:22:09;15.90;4.50
59469;DHT22;45277;52.768;18.262;2023-04-21T08:23:41;15.90;2.30
59469;DHT22;45277;52.768;18.262;2023-04-21T08:25:12;16.10;4.70
59469;DHT22;45277;52.768;18.262;2023-04-21T08:26:44;16.10;1.00
59469;DHT22;45277;52.768;18.262;2023-04-21T08:28:15;16.20;1.00
59469;DHT22;45277;52.768;18.262;2023-04-21T08:29:48;16.30;1.00
59469;DHT22;45277;52.768;18.262;2023-04-21T08:31:19;16.40;1.00
59469;DHT22;45277;52.768;18.262;2023-04-21T08:32:51;16.50;1.00
59469;DHT22;45277;52.768;18.262;2023-04-21T08:34:22;16.50;1.00
59469;DHT22;45277;52.768;18.262;2023-04-21T08:35:54;16.60;1.00
59469;DHT22;45277;52.768;18.262;2023-04-21T08:37:25;16.60;1.00
59469;DHT22;45277;52.768;18.262;2023-04-21T08:38:57;16.60;1.00
59469;DHT22;45277;52.768;18.262;2023-04-21T08:40:34;16.60;1.00
59469;DHT22;45277;52.768;18.262;2023-04-21T08:42:07;16.70;1.00
59469;DHT22;45277;52.768;18.262;2023-04-21T08:43:39;16.90;1.00
59469;DHT22;45277;52.768;18.262;2023-04-21T08:45:11;16.90;1.00
59469;DHT22;45277;52.768;18.262;2023-04-21T08:46:44;17.10;1.00
59469;DHT22;45277;52.768;18.262;2023-04-21T08:48:16;17.10;1.00
59469;DHT22;45277;52.768;18.262;2023-04-21T08:49:51;17.00;1.00
59469;DHT22;45277;52.768;18.262;2023-04-21T08:51:26;17.20;1.00
59469;DHT22;45277;52.768;18.262;2023-04-21T08:52:58;17.30;1.00
59469;DHT22;45277;52.768;18.262;2023-04-21T08:54:30;17.40;1.00
59469;DHT22;45277;52.768;18.262;2023-04-21T08:56:02;17.20;1.00
59469;DHT22;45277;52.768;18.262;2023-04-21T08:57:34;17.30;1.00
59469;DHT22;45277;52.768;18.262;2023-04-21T08:59:06;17.40;1.00
59469;DHT22;45277;52.768;18.262;2023-04-21T09:00:37;17.60;1.00
59469;DHT22;45277;52.768;18.262;2023-04-21T09:02:16;17.50;1.00
59469;DHT22;45277;52.768;18.262;2023-04-21T09:03:49;17.40;1.00
59469;DHT22;45277;52.768;18.262;2023-04-21T09:05:24;17.50;1.00
59469;DHT22;45277;52.768;18.262;2023-04-21T09:06:56;17.50;1.00
59469;DHT22;45277;52.768;18.262;2023-04-21T09:08:28;17.70;1.00
59469;DHT22;45277;52.768;18.262;2023-04-21T09:10:01;17.80;1.00
59469;DHT22;45277;52.768;18.262;2023-04-21T09:11:34;17.90;1.00
59469;DHT22;45277;52.768;18.262;2023-04-21T09:13:06;18.00;1.00
59469;DHT22;45277;52.768;18.262;2023-04-21T09:14:39;18.10;1.00
59469;DHT22;45277;52.768;18.262;2023-04-21T09:16:18;18.20;1.00
59469;DHT22;45277;52.768;18.262;2023-04-21T09:17:54;18.30;1.00
59469;DHT22;45277;52.768;18.262;2023-04-21T09:19:32;18.40;1.00
59469;DHT22;45277;52.768;18.262;2023-04-21T09:21:07;18.50;1.00
59469;DHT22;45277;52.768;18.262;2023-04-21T09:22:39;18.60;1.00
59469;DHT22;45277;52.768;18.262;2023-04-21T09:24:12;18.70;1.00
59469;DHT22;45277;52.768;18.262;2023-04-21T09:25:44;18.70;1.00
59469;DHT22;45277;52.768;18.262;2023-04-21T09:27:16;18.60;1.00
59469;DHT22;45277;52.768;18.262;2023-04-21T09:28:49;18.50;1.00
59469;DHT22;45277;52.768;18.262;2023-04-21T09:30:21;18.60;1.00
59469;DHT22;45277;52.768;18.262;2023-04-21T09:31:53;18.70;1.00
59469;DHT22;45277;52.768;18.262;2023-04-21T09:33:24;18.70;1.00
59469;DHT22;45277;52.768;18.262;2023-04-21T09:34:59;18.70;1.00
59469;DHT22;45277;52.768;18.262;2023-04-21T09:36:31;18.60;1.00
59469;DHT22;45277;52.768;18.262;2023-04-21T09:38:05;18.60;1.00
59469;DHT22;45277;52.768;18.262;2023-04-21T09:39:44;18.80;1.00
59469;DHT22;45277;52.768;18.262;2023-04-21T09:41:17;19.00;1.00
59469;DHT22;45277;52.768;18.262;2023-04-21T09:42:48;19.10;1.00
59469;DHT22;45277;52.768;18.262;2023-04-21T09:44:20;19.20;1.00
59469;DHT22;45277;52.768;18.262;2023-04-21T09:45:53;19.20;1.00
59469;DHT22;45277;52.768;18.262;2023-04-21T09:47:28;19.10;1.00
59469;DHT22;45277;52.768;18.262;2023-04-21T09:49:01;19.30;1.00